Time,TemperatureF,DewpointF,PressureIn,WindDirection,WindDirectionDegrees,WindSpeedMPH,WindSpeedGustMPH,Humidity,HourlyPrecipIn,Conditions,Clouds,dailyrainin,SoftwareType,DateUTC
2013-06-11 10:30:00,84.2,56.6,26.67,SSW,204,0.0,0.0,39,0.00,,---,0.12,VWS V14.01,2013-06-11 15:30:00,
2013-06-11 10:31:00,84.2,56.6,26.67,SSW,204,0.0,0.0,39,0.00,,---,0.00,VWS V14.01,2013-06-11 15:31:00,
2013-06-11 10:32:00,84.6,56.9,26.67,WSW,252,2.2,2.2,39,0.00,,---,0.00,VWS V14.01,2013-06-11 15:32:00,
2013-06-11 10:36:00,84.9,57.2,26.67,ESE,119,0.0,0.0,39,0.00,,---,0.00,VWS V14.01,2013-06-11 15:36:00,
2013-06-11 10:37:00,84.7,55.6,26.67,SSW,208,2.2,2.2,37,0.00,,---,0.00,VWS V14.01,2013-06-11 15:37:00,
2013-06-11 10:41:00,84.9,55.0,26.67,North,9,0.0,0.0,36,0.00,,---,0.00,VWS V14.01,2013-06-11 15:41:00,
2013-06-11 10:42:00,84.7,54.9,26.67,WSW,241,0.0,2.7,36,0.00,,---,0.00,VWS V14.01,2013-06-11 15:42:00,
2013-06-11 10:43:00,84.7,54.9,26.67,North,349,2.7,3.6,36,0.00,,---,0.00,VWS V14.01,2013-06-11 15:43:00,
2013-06-11 10:46:00,84.4,53.8,26.67,WSW,249,3.1,3.6,35,0.00,,---,0.00,VWS V14.01,2013-06-11 15:46:00,
2013-06-11 10:47:00,84.4,53.8,26.67,WNW,298,0.0,3.6,35,0.00,,---,0.00,VWS V14.01,2013-06-11 15:47:00,
2013-06-11 10:48:00,84.4,53.8,26.67,East,79,2.2,3.6,35,0.00,,---,0.00,VWS V14.01,2013-06-11 15:48:00,
2013-06-11 10:51:00,84.6,56.2,26.67,NNW,331,3.6,3.6,38,0.00,,---,0.00,VWS V14.01,2013-06-11 15:51:00,
2013-06-11 10:52:00,84.6,55.5,26.67,North,9,2.7,5.8,37,0.00,,---,0.00,VWS V14.01,2013-06-11 15:52:00,
2013-06-11 10:53:00,84.6,55.5,26.67,NW,316,7.6,7.6,37,0.00,,---,0.00,VWS V14.01,2013-06-11 15:53:00,
2013-06-11 10:56:00,84.6,53.9,26.61,SSE,151,2.2,4.0,35,0.00,,---,0.00,VWS V14.01,2013-06-11 15:56:00,
2013-06-11 10:57:00,84.6,53.9,26.61,SSE,151,2.2,2.2,35,0.00,,---,0.00,VWS V14.01,2013-06-11 15:57:00,
2013-06-11 10:58:00,84.6,53.9,26.61,NW,308,2.2,2.2,35,0.00,,---,0.00,VWS V14.01,2013-06-11 15:58:00,
2013-06-11 11:01:00,85.3,56.8,26.61,NW,308,2.2,2.2,38,0.00,,---,0.00,VWS V14.01,2013-06-11 16:01:00,
2013-06-11 11:02:00,85.3,56.8,26.61,WNW,303,5.4,5.4,38,0.00,,---,0.00,VWS V14.01,2013-06-11 16:02:00,
2013-06-11 11:03:00,85.1,54.4,26.61,WNW,303,5.4,5.4,35,0.00,,---,0.00,VWS V14.01,2013-06-11 16:03:00,
2013-06-11 11:04:00,85.1,54.4,26.61,WNW,303,5.4,5.4,35,0.00,,---,0.00,VWS V14.01,2013-06-11 16:04:00,
2013-06-11 11:06:00,85.3,53.0,26.61,WSW,245,5.4,5.4,33,0.00,,---,0.00,VWS V14.01,2013-06-11 16:06:00,
2013-06-11 11:07:00,85.1,52.8,26.61,WSW,245,5.4,5.4,33,0.00,,---,0.00,VWS V14.01,2013-06-11 16:07:00,
2013-06-11 11:08:00,85.1,52.8,26.61,WSW,253,0.0,5.4,33,0.00,,---,0.00,VWS V14.01,2013-06-11 16:08:00,
2013-06-11 11:09:00,85.1,52.8,26.67,WSW,253,0.0,0.0,33,0.00,,---,0.00,VWS V14.01,2013-06-11 16:09:00,
2013-06-11 11:11:00,84.9,53.5,26.67,WSW,253,0.0,0.0,34,0.00,,---,0.00,VWS V14.01,2013-06-11 16:11:00,
2013-06-11 11:12:00,84.7,53.3,26.67,NNW,342,2.2,2.2,34,0.00,,---,0.00,VWS V14.01,2013-06-11 16:12:00,
2013-06-11 11:13:00,84.7,53.3,26.67,WNW,299,3.6,3.6,34,0.00,,---,0.00,VWS V14.01,2013-06-11 16:13:00,
2013-06-11 11:14:00,84.7,53.3,26.67,WNW,299,3.6,3.6,34,0.00,,---,0.00,VWS V14.01,2013-06-11 16:14:00,
2013-06-11 11:16:00,84.7,53.3,26.67,WSW,241,0.0,0.0,34,0.00,,---,0.00,VWS V14.01,2013-06-11 16:16:00,
2013-06-11 11:17:00,84.7,53.3,26.67,WNW,291,0.0,0.0,34,0.00,,---,0.00,VWS V14.01,2013-06-11 16:17:00,
2013-06-11 11:18:00,85.6,55.7,26.67,NW,324,0.0,0.0,36,0.00,,---,0.00,VWS V14.01,2013-06-11 16:18:00,
2013-06-11 11:19:00,85.6,55.7,26.67,NW,324,0.0,0.0,36,0.00,,---,0.00,VWS V14.01,2013-06-11 16:19:00,
2013-06-11 11:21:00,85.6,54.9,26.67,WNW,295,2.7,2.7,35,0.00,,---,0.00,VWS V14.01,2013-06-11 16:21:00,
2013-06-11 11:22:00,85.6,54.9,26.67,WNW,295,2.7,2.7,35,0.00,,---,0.00,VWS V14.01,2013-06-11 16:22:00,
2013-06-11 11:23:00,85.6,54.9,26.67,WNW,295,2.7,2.7,35,0.00,,---,0.00,VWS V14.01,2013-06-11 16:23:00,
2013-06-11 11:24:00,85.6,54.9,26.67,NW,304,0.0,2.7,35,0.00,,---,0.00,VWS V14.01,2013-06-11 16:24:00,
2013-06-11 11:26:00,85.5,53.9,26.70,South,181,3.1,3.1,34,0.00,,---,0.00,VWS V14.01,2013-06-11 16:26:00,
2013-06-11 11:27:00,85.5,53.9,26.70,South,181,3.1,3.1,34,0.00,,---,0.00,VWS V14.01,2013-06-11 16:27:00,
2013-06-11 11:28:00,85.5,53.9,26.70,SW,236,3.1,3.1,34,0.00,,---,0.00,VWS V14.01,2013-06-11 16:28:00,
2013-06-11 11:29:00,85.3,53.0,26.70,SW,236,3.1,3.1,33,0.00,,---,0.00,VWS V14.01,2013-06-11 16:29:00,
2013-06-11 11:31:00,85.3,53.8,26.70,SW,236,3.1,3.1,34,0.00,,---,0.00,VWS V14.01,2013-06-11 16:31:00,
2013-06-11 11:32:00,85.3,53.8,26.70,NNW,337,0.0,0.0,34,0.00,,---,0.00,VWS V14.01,2013-06-11 16:32:00,
2013-06-11 11:33:00,85.3,53.8,26.70,NNW,337,0.0,0.0,34,0.00,,---,0.00,VWS V14.01,2013-06-11 16:33:00,
2013-06-11 11:34:00,85.3,53.8,26.70,West,279,0.0,0.0,34,0.00,,---,0.00,VWS V14.01,2013-06-11 16:34:00,
2013-06-11 11:36:00,85.5,54.7,26.70,West,279,0.0,0.0,35,0.00,,---,0.00,VWS V14.01,2013-06-11 16:36:00,
2013-06-11 11:37:00,85.5,54.7,26.70,West,279,0.0,0.0,35,0.00,,---,0.00,VWS V14.01,2013-06-11 16:37:00,
2013-06-11 11:39:00,85.5,54.7,26.70,West,279,0.0,0.0,35,0.00,,---,0.00,VWS V14.01,2013-06-11 16:39:00,
2013-06-11 11:40:00,85.5,54.7,26.70,West,264,4.0,4.0,35,0.00,,---,0.00,VWS V14.01,2013-06-11 16:40:00,
2013-06-11 11:41:00,85.5,54.7,26.70,NNW,328,3.6,4.0,35,0.00,,---,0.00,VWS V14.01,2013-06-11 16:41:00,
2013-06-11 11:42:00,85.5,54.7,26.72,North,9,2.7,3.6,35,0.00,,---,0.00,VWS V14.01,2013-06-11 16:42:00,
2013-06-11 11:44:00,85.5,54.7,26.72,North,9,2.7,2.7,35,0.00,,---,0.00,VWS V14.01,2013-06-11 16:44:00,
2013-06-11 11:45:00,87.4,55.7,26.72,North,9,2.7,2.7,34,0.00,,---,0.00,VWS V14.01,2013-06-11 16:45:00,
2013-06-11 11:46:00,87.8,55.2,26.72,WSW,250,3.1,3.1,33,0.00,,---,0.00,VWS V14.01,2013-06-11 16:46:00,
2013-06-11 11:47:00,88.0,54.5,26.72,WSW,250,3.1,3.1,32,0.00,,---,0.00,VWS V14.01,2013-06-11 16:47:00,
2013-06-11 11:49:00,88.0,54.5,26.72,WSW,250,3.1,3.1,32,0.00,,---,0.00,VWS V14.01,2013-06-11 16:49:00,
2013-06-11 11:50:00,88.2,53.7,26.72,WSW,250,3.1,3.1,31,0.00,,---,0.00,VWS V14.01,2013-06-11 16:50:00,
2013-06-11 11:52:00,88.2,53.7,26.72,WSW,250,3.1,3.1,31,0.00,,---,0.00,VWS V14.01,2013-06-11 16:52:00,
2013-06-11 11:53:00,88.5,54.1,26.72,WSW,250,3.1,3.1,31,0.00,,---,0.00,VWS V14.01,2013-06-11 16:53:00,
2013-06-11 11:54:00,88.5,54.1,26.64,SSW,212,0.0,0.0,31,0.00,,---,0.00,VWS V14.01,2013-06-11 16:54:00,
2013-06-11 11:55:00,88.9,56.1,26.64,East,92,0.0,0.0,33,0.00,,---,0.00,VWS V14.01,2013-06-11 16:55:00,
2013-06-11 11:57:00,88.7,54.2,26.64,SSW,199,0.0,0.0,31,0.00,,---,0.00,VWS V14.01,2013-06-11 16:57:00,
2013-06-11 11:58:00,88.7,54.2,26.64,NW,317,2.7,2.7,31,0.00,,---,0.00,VWS V14.01,2013-06-11 16:58:00,
2013-06-11 11:59:00,88.7,54.2,26.64,NW,317,2.7,2.7,31,0.00,,---,0.00,VWS V14.01,2013-06-11 16:59:00,
2013-06-11 12:01:00,88.7,54.2,26.64,South,171,0.0,2.7,31,0.00,,---,0.00,VWS V14.01,2013-06-11 17:01:00,
2013-06-11 12:02:00,88.7,54.2,26.64,NNE,31,3.1,3.1,31,0.00,,---,0.00,VWS V14.01,2013-06-11 17:02:00,
2013-06-11 12:03:00,88.2,51.9,26.64,NNE,31,3.1,3.1,29,0.00,,---,0.00,VWS V14.01,2013-06-11 17:03:00,
2013-06-11 12:04:00,88.2,51.9,26.64,NNE,31,3.1,3.1,29,0.00,,---,0.00,VWS V14.01,2013-06-11 17:04:00,
2013-06-11 12:05:00,88.2,51.9,26.64,NNE,31,3.1,3.1,29,0.00,,---,0.00,VWS V14.01,2013-06-11 17:05:00,
2013-06-11 12:06:00,88.2,51.9,26.64,NNE,31,3.1,3.1,29,0.00,,---,0.00,VWS V14.01,2013-06-11 17:06:00,
2013-06-11 12:07:00,88.2,51.9,26.64,NNE,31,3.1,3.1,29,0.00,,---,0.00,VWS V14.01,2013-06-11 17:07:00,
2013-06-11 12:08:00,88.2,51.9,26.64,North,1,3.1,3.1,29,0.00,,---,0.00,VWS V14.01,2013-06-11 17:08:00,
2013-06-11 12:09:00,88.2,51.9,26.64,North,1,3.1,3.1,29,0.00,,---,0.00,VWS V14.01,2013-06-11 17:09:00,
2013-06-11 12:10:00,89.2,52.9,26.64,North,1,3.1,3.1,29,0.00,,---,0.00,VWS V14.01,2013-06-11 17:10:00,
2013-06-11 12:11:00,89.2,52.9,26.64,North,1,3.1,3.1,29,0.00,,---,0.00,VWS V14.01,2013-06-11 17:11:00,
2013-06-11 12:12:00,89.4,53.0,26.64,North,1,3.1,3.1,29,0.00,,---,0.00,VWS V14.01,2013-06-11 17:12:00,
2013-06-11 12:14:00,89.4,53.0,26.64,NW,304,5.4,5.4,29,0.00,,---,0.00,VWS V14.01,2013-06-11 17:14:00,
2013-06-11 12:15:00,89.4,53.0,26.64,North,8,0.0,0.0,29,0.00,,---,0.00,VWS V14.01,2013-06-11 17:15:00,
2013-06-11 12:17:00,89.4,53.0,26.64,North,8,0.0,0.0,29,0.00,,---,0.00,VWS V14.01,2013-06-11 17:17:00,
2013-06-11 12:19:00,88.7,52.4,26.64,NW,313,2.7,2.7,29,0.00,,---,0.00,VWS V14.01,2013-06-11 17:19:00,
2013-06-11 12:20:00,88.7,52.4,26.64,NW,313,2.7,2.7,29,0.00,,---,0.00,VWS V14.01,2013-06-11 17:20:00,
2013-06-11 12:22:00,88.5,52.2,26.64,WNW,296,2.7,2.7,29,0.00,,---,0.00,VWS V14.01,2013-06-11 17:22:00,
2013-06-11 12:24:00,88.5,52.2,26.70,North,0,5.4,5.4,29,0.00,,---,0.00,VWS V14.01,2013-06-11 17:24:00,
2013-06-11 12:25:00,88.5,53.2,26.70,North,0,5.4,5.4,30,0.00,,---,0.00,VWS V14.01,2013-06-11 17:25:00,
2013-06-11 12:27:00,88.9,52.5,26.70,NW,317,0.0,0.0,29,0.00,,---,0.00,VWS V14.01,2013-06-11 17:27:00,
2013-06-11 12:29:00,88.9,52.5,26.70,North,1,4.0,4.0,29,0.00,,---,0.00,VWS V14.01,2013-06-11 17:29:00,
2013-06-11 12:30:00,88.9,52.5,26.70,WNW,291,3.1,3.1,29,0.00,,---,0.00,VWS V14.01,2013-06-11 17:30:00,
2013-06-11 12:32:00,88.3,51.1,26.70,WNW,284,3.1,3.1,28,0.00,,---,0.00,VWS V14.01,2013-06-11 17:32:00,
2013-06-11 12:33:00,88.3,51.1,26.70,WNW,284,3.1,3.1,28,0.00,,---,0.00,VWS V14.01,2013-06-11 17:33:00,
2013-06-11 12:34:00,88.3,51.1,26.70,North,11,0.0,0.0,28,0.00,,---,0.00,VWS V14.01,2013-06-11 17:34:00,
2013-06-11 12:35:00,88.3,51.1,26.70,NNE,22,3.6,3.6,28,0.00,,---,0.00,VWS V14.01,2013-06-11 17:35:00,
2013-06-11 12:37:00,87.8,51.6,26.70,NNE,22,3.6,3.6,29,0.00,,---,0.00,VWS V14.01,2013-06-11 17:37:00,
2013-06-11 12:38:00,87.6,51.5,26.70,NNE,22,3.6,3.6,29,0.00,,---,0.00,VWS V14.01,2013-06-11 17:38:00,
2013-06-11 12:39:00,87.4,51.3,26.64,NNE,22,0.0,0.0,29,0.00,,---,0.00,VWS V14.01,2013-06-11 17:39:00,
2013-06-11 12:40:00,87.4,51.3,26.64,NNE,22,0.0,0.0,29,0.00,,---,0.00,VWS V14.01,2013-06-11 17:40:00,
2013-06-11 12:43:00,87.6,52.4,26.64,NNE,22,0.0,0.0,30,0.00,,---,0.00,VWS V14.01,2013-06-11 17:43:00,
2013-06-11 12:44:00,88.2,54.6,26.64,NNE,22,0.0,0.0,32,0.00,,---,0.00,VWS V14.01,2013-06-11 17:44:00,
2013-06-11 12:45:00,88.2,54.6,26.64,NNE,22,0.0,0.0,32,0.00,,---,0.00,VWS V14.01,2013-06-11 17:45:00,
2013-06-11 12:48:00,88.7,55.1,26.64,SSW,198,2.2,2.2,32,0.00,,---,0.00,VWS V14.01,2013-06-11 17:48:00,
2013-06-11 12:49:00,88.7,54.2,26.64,NE,46,0.0,2.2,31,0.00,,---,0.00,VWS V14.01,2013-06-11 17:49:00,
2013-06-11 12:50:00,88.7,54.2,26.64,NE,46,0.0,2.2,31,0.00,,---,0.00,VWS V14.01,2013-06-11 17:50:00,
2013-06-11 12:53:00,88.7,54.2,26.64,WSW,255,0.0,0.0,31,0.00,,---,0.00,VWS V14.01,2013-06-11 17:53:00,
2013-06-11 12:54:00,89.1,53.6,26.64,WSW,255,0.0,0.0,30,0.00,,---,0.00,VWS V14.01,2013-06-11 17:54:00,
2013-06-11 12:55:00,89.1,53.6,26.64,WSW,255,0.0,0.0,30,0.00,,---,0.00,VWS V14.01,2013-06-11 17:55:00,
2013-06-11 12:56:00,89.1,53.6,26.64,WSW,255,0.0,0.0,30,0.00,,---,0.00,VWS V14.01,2013-06-11 17:56:00,
2013-06-11 12:58:00,89.1,53.6,26.64,WSW,255,0.0,0.0,30,0.00,,---,0.00,VWS V14.01,2013-06-11 17:58:00,
2013-06-11 12:59:00,89.1,53.6,26.64,WSW,255,0.0,0.0,30,0.00,,---,0.00,VWS V14.01,2013-06-11 17:59:00,
2013-06-11 13:00:00,89.1,53.6,26.64,East,94,2.7,2.7,30,0.00,,---,0.00,VWS V14.01,2013-06-11 18:00:00,
2013-06-11 13:01:00,89.1,53.6,26.64,East,94,2.7,2.7,30,0.00,,---,0.00,VWS V14.01,2013-06-11 18:01:00,
2013-06-11 13:03:00,90.1,53.6,26.64,NNW,344,3.6,3.6,29,0.00,,---,0.00,VWS V14.01,2013-06-11 18:03:00,
2013-06-11 13:05:00,90.3,53.8,26.64,NNW,344,3.6,3.6,29,0.00,,---,0.00,VWS V14.01,2013-06-11 18:05:00,
2013-06-11 13:06:00,90.3,52.8,26.64,WNW,292,0.0,3.6,28,0.00,,---,0.00,VWS V14.01,2013-06-11 18:06:00,
2013-06-11 13:08:00,90.3,52.8,26.61,WNW,292,0.0,0.0,28,0.00,,---,0.00,VWS V14.01,2013-06-11 18:08:00,
2013-06-11 13:10:00,90.3,52.8,26.61,WNW,292,0.0,0.0,28,0.00,,---,0.00,VWS V14.01,2013-06-11 18:10:00,
2013-06-11 13:11:00,89.6,51.2,26.61,WNW,292,0.0,0.0,27,0.00,,---,0.00,VWS V14.01,2013-06-11 18:11:00,
2013-06-11 13:13:00,89.2,51.9,26.61,WNW,292,0.0,0.0,28,0.00,,---,0.00,VWS V14.01,2013-06-11 18:13:00,
2013-06-11 13:14:00,89.2,51.9,26.61,WNW,292,0.0,0.0,28,0.00,,---,0.00,VWS V14.01,2013-06-11 18:14:00,
2013-06-11 13:15:00,89.1,52.7,26.61,North,349,2.7,2.7,29,0.00,,---,0.00,VWS V14.01,2013-06-11 18:15:00,
2013-06-11 13:17:00,88.9,52.5,26.61,NNW,340,7.6,7.6,29,0.00,,---,0.00,VWS V14.01,2013-06-11 18:17:00,
2013-06-11 13:18:00,88.9,52.5,26.61,NW,312,0.0,0.0,29,0.00,,---,0.00,VWS V14.01,2013-06-11 18:18:00,
2013-06-11 13:19:00,88.9,52.5,26.61,NNE,12,0.0,0.0,29,0.00,,---,0.00,VWS V14.01,2013-06-11 18:19:00,
2013-06-11 13:20:00,88.9,52.5,26.61,NNE,12,0.0,0.0,29,0.00,,---,0.00,VWS V14.01,2013-06-11 18:20:00,
2013-06-11 13:22:00,88.9,52.5,26.61,NNE,12,0.0,0.0,29,0.00,,---,0.00,VWS V14.01,2013-06-11 18:22:00,
2013-06-11 13:24:00,88.9,52.5,26.61,NNE,12,0.0,0.0,29,0.00,,---,0.00,VWS V14.01,2013-06-11 18:24:00,
2013-06-11 13:25:00,88.9,52.5,26.61,WNW,301,6.3,6.3,29,0.00,,---,0.00,VWS V14.01,2013-06-11 18:25:00,
2013-06-11 13:27:00,88.9,52.5,26.64,North,357,3.1,3.1,29,0.00,,---,0.00,VWS V14.01,2013-06-11 18:27:00,
2013-06-11 13:29:00,89.6,52.2,26.64,NNW,327,5.4,5.4,28,0.00,,---,0.00,VWS V14.01,2013-06-11 18:29:00,
2013-06-11 13:30:00,89.6,52.2,26.64,NNW,327,5.4,5.4,28,0.00,,---,0.00,VWS V14.01,2013-06-11 18:30:00,
2013-06-11 13:32:00,89.6,52.2,26.64,NNW,327,5.4,5.4,28,0.00,,---,0.00,VWS V14.01,2013-06-11 18:32:00,
2013-06-11 13:34:00,89.6,52.2,26.64,NW,307,0.0,0.0,28,0.00,,---,0.00,VWS V14.01,2013-06-11 18:34:00,
2013-06-11 13:35:00,89.6,52.2,26.64,NW,307,0.0,0.0,28,0.00,,---,0.00,VWS V14.01,2013-06-11 18:35:00,
2013-06-11 13:37:00,89.6,51.2,26.64,NW,311,2.7,2.7,27,0.00,,---,0.00,VWS V14.01,2013-06-11 18:37:00,
2013-06-11 13:39:00,89.6,52.2,26.64,West,272,3.1,3.1,28,0.00,,---,0.00,VWS V14.01,2013-06-11 18:39:00,
2013-06-11 13:40:00,89.4,53.0,26.64,West,272,3.1,3.1,29,0.00,,---,0.00,VWS V14.01,2013-06-11 18:40:00,
2013-06-11 13:42:00,89.4,53.0,26.64,NW,317,5.4,5.4,29,0.00,,---,0.00,VWS V14.01,2013-06-11 18:42:00,
2013-06-11 13:45:00,89.4,53.0,26.64,NNE,21,0.0,0.0,29,0.00,,---,0.00,VWS V14.01,2013-06-11 18:45:00,
2013-06-11 13:46:00,88.5,52.2,26.64,NNE,21,0.0,0.0,29,0.00,,---,0.00,VWS V14.01,2013-06-11 18:46:00,
2013-06-11 13:47:00,88.5,52.2,26.64,NNE,21,0.0,0.0,29,0.00,,---,0.00,VWS V14.01,2013-06-11 18:47:00,
2013-06-11 13:50:00,88.5,52.2,26.64,NNE,21,0.0,0.0,29,0.00,,---,0.00,VWS V14.01,2013-06-11 18:50:00,
2013-06-11 13:51:00,88.5,52.2,26.64,NNE,21,0.0,0.0,29,0.00,,---,0.00,VWS V14.01,2013-06-11 18:51:00,
2013-06-11 13:52:00,88.9,53.5,26.64,North,357,0.0,0.0,30,0.00,,---,0.00,VWS V14.01,2013-06-11 18:52:00,
2013-06-11 13:55:00,88.7,53.3,26.64,NW,326,5.4,5.4,30,0.00,,---,0.00,VWS V14.01,2013-06-11 18:55:00,
2013-06-11 13:56:00,89.1,52.7,26.64,NW,326,5.4,5.4,29,0.00,,---,0.00,VWS V14.01,2013-06-11 18:56:00,
2013-06-11 13:57:00,89.1,52.7,26.61,NW,326,5.4,5.4,29,0.00,,---,0.00,VWS V14.01,2013-06-11 18:57:00,
2013-06-11 14:00:00,89.1,52.7,26.61,NW,320,3.6,3.6,29,0.00,,---,0.00,VWS V14.01,2013-06-11 19:00:00,
2013-06-11 14:01:00,89.1,52.7,26.61,NW,320,3.6,3.6,29,0.00,,---,0.00,VWS V14.01,2013-06-11 19:01:00,
2013-06-11 14:02:00,88.9,51.6,26.61,NW,320,3.6,3.6,28,0.00,,---,0.00,VWS V14.01,2013-06-11 19:02:00,
2013-06-11 14:05:00,88.7,52.4,26.61,NW,320,3.6,3.6,29,0.00,,---,0.00,VWS V14.01,2013-06-11 19:05:00,
2013-06-11 14:06:00,88.9,52.5,26.61,NW,320,3.6,3.6,29,0.00,,---,0.00,VWS V14.01,2013-06-11 19:06:00,
2013-06-11 14:07:00,88.9,52.5,26.61,West,275,4.0,4.0,29,0.00,,---,0.00,VWS V14.01,2013-06-11 19:07:00,
2013-06-11 14:10:00,88.9,52.5,26.58,WNW,297,0.0,0.0,29,0.00,,---,0.00,VWS V14.01,2013-06-11 19:10:00,
2013-06-11 14:11:00,89.2,52.9,26.58,WNW,300,3.1,3.1,29,0.00,,---,0.00,VWS V14.01,2013-06-11 19:11:00,
2013-06-11 14:12:00,89.2,52.9,26.58,WNW,300,3.1,3.1,29,0.00,,---,0.00,VWS V14.01,2013-06-11 19:12:00,
2013-06-11 14:15:00,89.6,52.2,26.58,NW,321,2.7,2.7,28,0.00,,---,0.00,VWS V14.01,2013-06-11 19:15:00,
2013-06-11 14:16:00,89.6,52.2,26.58,NW,321,2.7,2.7,28,0.00,,---,0.00,VWS V14.01,2013-06-11 19:16:00,
2013-06-11 14:17:00,89.6,52.2,26.58,NW,321,2.7,2.7,28,0.00,,---,0.00,VWS V14.01,2013-06-11 19:17:00,
2013-06-11 14:18:00,89.6,52.2,26.58,East,85,2.2,2.7,28,0.00,,---,0.00,VWS V14.01,2013-06-11 19:18:00,
2013-06-11 14:20:00,89.8,52.4,26.58,East,85,2.2,2.2,28,0.00,,---,0.00,VWS V14.01,2013-06-11 19:20:00,
2013-06-11 14:21:00,90.0,54.4,26.58,NNW,327,2.2,2.2,30,0.00,,---,0.00,VWS V14.01,2013-06-11 19:21:00,
2013-06-11 14:22:00,90.0,54.4,26.58,NNW,327,2.2,2.2,30,0.00,,---,0.00,VWS V14.01,2013-06-11 19:22:00,
2013-06-11 14:23:00,90.0,54.4,26.58,NNW,327,2.2,2.2,30,0.00,,---,0.00,VWS V14.01,2013-06-11 19:23:00,
2013-06-11 14:25:00,90.0,54.4,26.61,WNW,297,3.1,3.1,30,0.00,,---,0.00,VWS V14.01,2013-06-11 19:25:00,
2013-06-11 14:26:00,90.0,54.4,26.61,WNW,297,3.1,3.1,30,0.00,,---,0.00,VWS V14.01,2013-06-11 19:26:00,
2013-06-11 14:27:00,90.0,54.4,26.61,WNW,297,3.1,3.1,30,0.00,,---,0.00,VWS V14.01,2013-06-11 19:27:00,
2013-06-11 14:28:00,90.0,54.4,26.61,WNW,297,3.1,3.1,30,0.00,,---,0.00,VWS V14.01,2013-06-11 19:28:00,
2013-06-11 14:30:00,90.1,51.7,26.61,NNW,331,0.0,0.0,27,0.00,,---,0.00,VWS V14.01,2013-06-11 19:30:00,
2013-06-11 14:32:00,90.1,52.7,26.61,NNW,331,0.0,0.0,28,0.00,,---,0.00,VWS V14.01,2013-06-11 19:32:00,
2013-06-11 14:33:00,90.1,52.7,26.61,NNW,331,0.0,0.0,28,0.00,,---,0.00,VWS V14.01,2013-06-11 19:33:00,
2013-06-11 14:35:00,90.1,52.7,26.61,WSW,257,4.9,4.9,28,0.00,,---,0.00,VWS V14.01,2013-06-11 19:35:00,
2013-06-11 14:37:00,90.0,50.5,26.61,WSW,257,4.9,4.9,26,0.00,,---,0.00,VWS V14.01,2013-06-11 19:37:00,
2013-06-11 14:38:00,90.0,50.5,26.61,WSW,257,4.9,4.9,26,0.00,,---,0.00,VWS V14.01,2013-06-11 19:38:00,
2013-06-11 14:40:00,89.8,49.3,26.61,NNE,22,2.7,2.7,25,0.00,,---,0.00,VWS V14.01,2013-06-11 19:40:00,
2013-06-11 14:42:00,89.8,49.3,26.61,WNW,295,2.7,2.7,25,0.00,,---,0.00,VWS V14.01,2013-06-11 19:42:00,
2013-06-11 14:43:00,89.8,49.3,26.61,WNW,295,2.7,2.7,25,0.00,,---,0.00,VWS V14.01,2013-06-11 19:43:00,
2013-06-11 14:46:00,89.2,48.8,26.61,NE,35,0.0,0.0,25,0.00,,---,0.00,VWS V14.01,2013-06-11 19:46:00,
2013-06-11 14:47:00,89.2,49.9,26.61,WNW,284,3.6,3.6,26,0.00,,---,0.00,VWS V14.01,2013-06-11 19:47:00,
2013-06-11 14:48:00,89.2,49.9,26.61,WNW,284,3.6,3.6,26,0.00,,---,0.00,VWS V14.01,2013-06-11 19:48:00,
2013-06-11 14:49:00,89.2,49.9,26.61,WNW,284,3.6,3.6,26,0.00,,---,0.00,VWS V14.01,2013-06-11 19:49:00,
2013-06-11 14:51:00,89.2,49.9,26.61,WNW,284,3.6,3.6,26,0.00,,---,0.00,VWS V14.01,2013-06-11 19:51:00,
2013-06-11 14:53:00,89.2,49.9,26.61,South,182,0.0,0.0,26,0.00,,---,0.00,VWS V14.01,2013-06-11 19:53:00,
2013-06-11 14:54:00,88.5,50.3,26.61,South,182,0.0,0.0,27,0.00,,---,0.00,VWS V14.01,2013-06-11 19:54:00,
2013-06-11 14:56:00,88.5,50.3,26.58,South,182,0.0,0.0,27,0.00,,---,0.00,VWS V14.01,2013-06-11 19:56:00,
2013-06-11 14:58:00,88.7,51.4,26.58,South,182,0.0,0.0,28,0.00,,---,0.00,VWS V14.01,2013-06-11 19:58:00,
2013-06-11 14:59:00,88.7,51.4,26.58,WNW,303,4.9,4.9,28,0.00,,---,0.00,VWS V14.01,2013-06-11 19:59:00,
2013-06-11 15:01:00,88.7,51.4,26.58,NNW,342,2.2,4.9,28,0.00,,---,0.00,VWS V14.01,2013-06-11 20:01:00,
2013-06-11 15:03:00,88.7,51.4,26.58,NNW,342,2.2,2.2,28,0.00,,---,0.00,VWS V14.01,2013-06-11 20:03:00,
2013-06-11 15:04:00,88.7,51.4,26.58,North,357,4.0,4.0,28,0.00,,---,0.00,VWS V14.01,2013-06-11 20:04:00,
2013-06-11 15:07:00,88.7,51.4,26.58,NW,307,2.2,2.2,28,0.00,,---,0.00,VWS V14.01,2013-06-11 20:07:00,
2013-06-11 15:08:00,88.7,51.4,26.58,NW,307,2.2,2.2,28,0.00,,---,0.00,VWS V14.01,2013-06-11 20:08:00,
2013-06-11 15:10:00,88.7,51.4,26.58,SSW,206,0.0,0.0,28,0.00,,---,0.00,VWS V14.01,2013-06-11 20:10:00,
2013-06-11 15:12:00,88.5,51.3,26.58,SSW,206,0.0,0.0,28,0.00,,---,0.00,VWS V14.01,2013-06-11 20:12:00,
2013-06-11 15:13:00,88.7,51.4,26.58,SSW,206,0.0,0.0,28,0.00,,---,0.00,VWS V14.01,2013-06-11 20:13:00,
2013-06-11 15:14:00,88.7,51.4,26.58,SSW,206,0.0,0.0,28,0.00,,---,0.00,VWS V14.01,2013-06-11 20:14:00,
2013-06-11 15:15:00,88.7,51.4,26.58,SSW,206,0.0,0.0,28,0.00,,---,0.00,VWS V14.01,2013-06-11 20:15:00,
2013-06-11 15:17:00,88.7,51.4,26.61,NW,325,4.5,4.5,28,0.00,,---,0.00,VWS V14.01,2013-06-11 20:17:00,
2013-06-11 15:18:00,88.7,51.4,26.61,NW,325,4.5,4.5,28,0.00,,---,0.00,VWS V14.01,2013-06-11 20:18:00,
2013-06-11 15:19:00,88.7,51.4,26.61,NW,324,3.1,4.5,28,0.00,,---,0.00,VWS V14.01,2013-06-11 20:19:00,
2013-06-11 15:20:00,88.7,51.4,26.61,NW,324,3.1,3.1,28,0.00,,---,0.00,VWS V14.01,2013-06-11 20:20:00,
2013-06-11 15:22:00,88.7,50.5,26.61,NW,324,3.1,3.1,27,0.00,,---,0.00,VWS V14.01,2013-06-11 20:22:00,
2013-06-11 15:24:00,88.7,50.5,26.61,NW,324,3.1,3.1,27,0.00,,---,0.00,VWS V14.01,2013-06-11 20:24:00,
2013-06-11 15:26:00,88.7,51.4,26.49,WNW,298,3.6,3.6,28,0.00,,---,0.00,VWS V14.01,2013-06-11 20:26:00,
2013-06-11 15:27:00,88.7,51.4,26.49,NW,326,0.0,0.0,28,0.00,,---,0.00,VWS V14.01,2013-06-11 20:27:00,
2013-06-11 15:29:00,88.7,51.4,26.49,NW,326,0.0,0.0,28,0.00,,---,0.00,VWS V14.01,2013-06-11 20:29:00,
2013-06-11 15:31:00,88.7,51.4,26.49,NW,326,0.0,0.0,28,0.00,,---,0.00,VWS V14.01,2013-06-11 20:31:00,
2013-06-11 15:32:00,88.7,51.4,26.49,NNW,327,0.0,0.0,28,0.00,,---,0.00,VWS V14.01,2013-06-11 20:32:00,
2013-06-11 15:34:00,88.9,51.6,26.49,NNW,327,0.0,0.0,28,0.00,,---,0.00,VWS V14.01,2013-06-11 20:34:00,
2013-06-11 15:36:00,88.9,51.6,26.49,NW,308,8.3,8.3,28,0.00,,---,0.00,VWS V14.01,2013-06-11 20:36:00,
2013-06-11 15:37:00,88.9,51.6,26.49,NNE,30,2.2,2.2,28,0.00,,---,0.00,VWS V14.01,2013-06-11 20:37:00,
2013-06-11 15:39:00,88.9,48.5,26.49,NNE,30,2.2,2.2,25,0.00,,---,0.00,VWS V14.01,2013-06-11 20:39:00,
2013-06-11 15:41:00,88.9,48.5,26.49,NW,325,0.0,2.2,25,0.00,,---,0.00,VWS V14.01,2013-06-11 20:41:00,
2013-06-11 15:42:00,88.9,48.5,26.49,NW,325,0.0,0.0,25,0.00,,---,0.00,VWS V14.01,2013-06-11 20:42:00,
2013-06-11 15:44:00,88.9,48.5,26.55,NW,325,0.0,0.0,25,0.00,,---,0.00,VWS V14.01,2013-06-11 20:44:00,
2013-06-11 15:46:00,88.9,48.5,26.55,SW,216,0.0,0.0,25,0.00,,---,0.00,VWS V14.01,2013-06-11 20:46:00,
2013-06-11 15:47:00,88.9,48.5,26.55,WNW,287,0.0,0.0,25,0.00,,---,0.00,VWS V14.01,2013-06-11 20:47:00,
2013-06-11 15:49:00,88.9,50.6,26.55,West,268,3.6,3.6,27,0.00,,---,0.00,VWS V14.01,2013-06-11 20:49:00,
2013-06-11 15:51:00,88.7,47.3,26.55,SSW,199,2.7,2.7,24,0.00,,---,0.00,VWS V14.01,2013-06-11 20:51:00,
2013-06-11 15:53:00,88.7,47.3,26.55,WNW,292,3.6,3.6,24,0.00,,---,0.00,VWS V14.01,2013-06-11 20:53:00,
2013-06-11 15:54:00,88.7,47.3,26.55,SSE,153,2.2,2.2,24,0.00,,---,0.00,VWS V14.01,2013-06-11 20:54:00,
2013-06-11 15:55:00,88.7,47.3,26.55,SSE,153,2.2,2.2,24,0.00,,---,0.00,VWS V14.01,2013-06-11 20:55:00,
2013-06-11 15:57:00,88.7,47.3,26.64,SSE,153,2.2,2.2,24,0.00,,---,0.00,VWS V14.01,2013-06-11 20:57:00,
2013-06-11 15:58:00,88.7,47.3,26.64,SSE,153,2.2,2.2,24,0.00,,---,0.00,VWS V14.01,2013-06-11 20:58:00,
2013-06-11 16:00:00,88.7,47.3,26.64,WNW,294,0.0,0.0,24,0.00,,---,0.00,VWS V14.01,2013-06-11 21:00:00,
2013-06-11 16:02:00,88.7,47.3,26.64,NW,307,3.1,3.1,24,0.00,,---,0.00,VWS V14.01,2013-06-11 21:02:00,
2013-06-11 16:03:00,88.7,47.3,26.64,NW,307,3.1,3.1,24,0.00,,---,0.00,VWS V14.01,2013-06-11 21:03:00,
2013-06-11 16:05:00,88.7,47.3,26.64,NW,307,3.1,3.1,24,0.00,,---,0.00,VWS V14.01,2013-06-11 21:05:00,
2013-06-11 16:07:00,88.3,47.0,26.64,North,353,5.8,5.8,24,0.00,,---,0.00,VWS V14.01,2013-06-11 21:07:00,
2013-06-11 16:09:00,88.3,47.0,26.64,North,353,5.8,5.8,24,0.00,,---,0.00,VWS V14.01,2013-06-11 21:09:00,
2013-06-11 16:10:00,88.3,47.0,26.58,NNW,345,4.9,4.9,24,0.00,,---,0.00,VWS V14.01,2013-06-11 21:10:00,
2013-06-11 16:12:00,88.2,47.9,26.58,NNW,345,4.9,4.9,25,0.00,,---,0.00,VWS V14.01,2013-06-11 21:12:00,
2013-06-11 16:14:00,88.0,46.7,26.58,NNW,345,4.9,4.9,24,0.00,,---,0.00,VWS V14.01,2013-06-11 21:14:00,
2013-06-11 16:15:00,88.0,46.7,26.58,NNW,345,4.9,4.9,24,0.00,,---,0.00,VWS V14.01,2013-06-11 21:15:00,
2013-06-11 16:17:00,88.0,47.8,26.58,NE,38,3.1,3.1,25,0.00,,---,0.00,VWS V14.01,2013-06-11 21:17:00,
2013-06-11 16:19:00,88.0,47.8,26.58,NNW,338,2.7,3.1,25,0.00,,---,0.00,VWS V14.01,2013-06-11 21:19:00,
2013-06-11 16:20:00,88.0,47.8,26.58,North,353,2.2,2.7,25,0.00,,---,0.00,VWS V14.01,2013-06-11 21:20:00,
2013-06-11 16:23:00,88.0,47.8,26.64,NW,318,3.1,3.1,25,0.00,,---,0.00,VWS V14.01,2013-06-11 21:23:00,
2013-06-11 16:24:00,88.0,47.8,26.64,NW,318,3.1,3.1,25,0.00,,---,0.00,VWS V14.01,2013-06-11 21:24:00,
2013-06-11 16:25:00,88.0,47.8,26.64,NW,320,0.0,3.1,25,0.00,,---,0.00,VWS V14.01,2013-06-11 21:25:00,
2013-06-11 16:28:00,88.0,47.8,26.64,NNW,327,4.9,4.9,25,0.00,,---,0.00,VWS V14.01,2013-06-11 21:28:00,
2013-06-11 16:29:00,88.0,47.8,26.64,NNW,327,4.9,4.9,25,0.00,,---,0.00,VWS V14.01,2013-06-11 21:29:00,
2013-06-11 16:30:00,88.0,47.8,26.64,NNW,327,4.9,4.9,25,0.00,,---,0.00,VWS V14.01,2013-06-11 21:30:00,
2013-06-11 16:34:00,87.4,49.4,26.64,NNW,327,4.9,4.9,27,0.00,,---,0.00,VWS V14.01,2013-06-11 21:34:00,
2013-06-11 16:35:00,87.4,49.4,26.64,NNW,328,0.0,0.0,27,0.00,,---,0.00,VWS V14.01,2013-06-11 21:35:00,
2013-06-11 16:36:00,87.4,49.4,26.64,NNW,328,0.0,0.0,27,0.00,,---,0.00,VWS V14.01,2013-06-11 21:36:00,
2013-06-11 16:39:00,87.1,44.8,26.64,WNW,290,2.2,2.2,23,0.00,,---,0.00,VWS V14.01,2013-06-11 21:39:00,
2013-06-11 16:41:00,87.1,46.0,26.64,WNW,290,2.2,2.2,24,0.00,,---,0.00,VWS V14.01,2013-06-11 21:41:00,
2013-06-11 16:44:00,87.1,46.0,26.61,West,276,2.7,2.7,24,0.00,,---,0.00,VWS V14.01,2013-06-11 21:44:00,
2013-06-11 16:45:00,87.1,46.0,26.61,West,276,2.7,2.7,24,0.00,,---,0.00,VWS V14.01,2013-06-11 21:45:00,
2013-06-11 16:46:00,87.1,46.0,26.61,West,276,2.7,2.7,24,0.00,,---,0.00,VWS V14.01,2013-06-11 21:46:00,
2013-06-11 16:50:00,87.1,46.0,26.61,NW,324,3.6,3.6,24,0.00,,---,0.00,VWS V14.01,2013-06-11 21:50:00,
2013-06-11 16:51:00,87.1,46.0,26.61,NW,324,3.6,3.6,24,0.00,,---,0.00,VWS V14.01,2013-06-11 21:51:00,
2013-06-11 16:52:00,87.1,46.0,26.61,WNW,288,0.0,3.6,24,0.00,,---,0.00,VWS V14.01,2013-06-11 21:52:00,
2013-06-11 16:55:00,87.1,46.0,26.55,NNE,13,3.6,3.6,24,0.00,,---,0.00,VWS V14.01,2013-06-11 21:55:00,
2013-06-11 16:56:00,87.1,46.0,26.55,NNW,327,5.4,5.4,24,0.00,,---,0.00,VWS V14.01,2013-06-11 21:56:00,
2013-06-11 16:57:00,86.9,46.9,26.55,NNW,327,5.4,5.4,25,0.00,,---,0.00,VWS V14.01,2013-06-11 21:57:00,
2013-06-11 17:00:00,86.9,47.9,26.55,NNW,327,5.4,5.4,26,0.00,,---,0.00,VWS V14.01,2013-06-11 22:00:00,
2013-06-11 17:01:00,86.9,47.9,26.55,NNW,329,2.7,2.7,26,0.00,,---,0.00,VWS V14.01,2013-06-11 22:01:00,
2013-06-11 17:02:00,86.9,47.9,26.55,NNW,329,2.7,2.7,26,0.00,,---,0.00,VWS V14.01,2013-06-11 22:02:00,
2013-06-11 17:05:00,86.9,47.9,26.55,NNW,327,0.0,2.7,26,0.00,,---,0.00,VWS V14.01,2013-06-11 22:05:00,
2013-06-11 17:06:00,86.5,46.6,26.55,NNW,327,0.0,0.0,25,0.00,,---,0.00,VWS V14.01,2013-06-11 22:06:00,
2013-06-11 17:07:00,86.5,46.6,26.55,NNW,327,0.0,0.0,25,0.00,,---,0.00,VWS V14.01,2013-06-11 22:07:00,
2013-06-11 17:10:00,86.5,46.6,26.55,WNW,290,4.0,4.0,25,0.00,,---,0.00,VWS V14.01,2013-06-11 22:10:00,
2013-06-11 17:11:00,86.5,46.6,26.55,West,261,3.6,3.6,25,0.00,,---,0.00,VWS V14.01,2013-06-11 22:11:00,
2013-06-11 17:12:00,86.5,46.6,26.55,West,261,3.6,3.6,25,0.00,,---,0.00,VWS V14.01,2013-06-11 22:12:00,
2013-06-11 17:15:00,86.5,46.6,26.55,NNW,346,3.6,3.6,25,0.00,,---,0.00,VWS V14.01,2013-06-11 22:15:00,
2013-06-11 17:16:00,86.5,46.6,26.55,NNW,346,3.6,3.6,25,0.00,,---,0.00,VWS V14.01,2013-06-11 22:16:00,
2013-06-11 17:17:00,86.5,46.6,26.52,NNW,346,3.6,3.6,25,0.00,,---,0.00,VWS V14.01,2013-06-11 22:17:00,
2013-06-11 17:20:00,86.5,46.6,26.52,WNW,299,6.3,6.3,25,0.00,,---,0.00,VWS V14.01,2013-06-11 22:20:00,
2013-06-11 17:21:00,86.5,46.6,26.52,WNW,299,6.3,6.3,25,0.00,,---,0.00,VWS V14.01,2013-06-11 22:21:00,
2013-06-11 17:22:00,86.5,46.6,26.52,WNW,299,6.3,6.3,25,0.00,,---,0.00,VWS V14.01,2013-06-11 22:22:00,
2013-06-11 17:25:00,86.4,46.4,26.52,WNW,299,6.3,6.3,25,0.00,,---,0.00,VWS V14.01,2013-06-11 22:25:00,
2013-06-11 17:26:00,86.4,46.4,26.52,NNW,337,2.7,6.3,25,0.00,,---,0.00,VWS V14.01,2013-06-11 22:26:00,
2013-06-11 17:27:00,86.4,46.4,26.58,NE,34,2.2,2.7,25,0.00,,---,0.00,VWS V14.01,2013-06-11 22:27:00,
2013-06-11 17:30:00,86.4,46.4,26.58,NE,34,2.7,2.7,25,0.00,,---,0.00,VWS V14.01,2013-06-11 22:30:00,
2013-06-11 17:31:00,86.0,48.2,26.58,NW,321,0.0,2.7,27,0.00,,---,0.00,VWS V14.01,2013-06-11 22:31:00,
2013-06-11 17:32:00,86.0,48.2,26.58,NW,321,0.0,2.7,27,0.00,,---,0.00,VWS V14.01,2013-06-11 22:32:00,
2013-06-11 17:36:00,86.0,49.1,26.58,NW,321,0.0,0.0,28,0.00,,---,0.00,VWS V14.01,2013-06-11 22:36:00,
2013-06-11 17:37:00,86.0,49.1,26.58,NW,315,3.6,3.6,28,0.00,,---,0.00,VWS V14.01,2013-06-11 22:37:00,
2013-06-11 17:38:00,85.8,49.0,26.58,NW,315,3.6,3.6,28,0.00,,---,0.00,VWS V14.01,2013-06-11 22:38:00,
2013-06-11 17:42:00,85.8,49.0,26.58,North,353,3.6,3.6,28,0.00,,---,0.00,VWS V14.01,2013-06-11 22:42:00,
2013-06-11 17:43:00,85.8,49.0,26.58,North,353,3.6,3.6,28,0.00,,---,0.00,VWS V14.01,2013-06-11 22:43:00,
2013-06-11 17:47:00,85.8,49.0,26.58,WNW,295,4.0,4.0,28,0.00,,---,0.00,VWS V14.01,2013-06-11 22:47:00,
2013-06-11 17:48:00,85.8,49.0,26.58,West,265,0.0,4.0,28,0.00,,---,0.00,VWS V14.01,2013-06-11 22:48:00,
2013-06-11 17:52:00,85.6,47.9,26.58,West,265,0.0,0.0,27,0.00,,---,0.00,VWS V14.01,2013-06-11 22:52:00,
2013-06-11 17:53:00,85.6,47.9,26.58,West,265,0.0,0.0,27,0.00,,---,0.00,VWS V14.01,2013-06-11 22:53:00,
2013-06-11 17:54:00,85.6,47.9,26.58,WNW,302,0.0,0.0,27,0.00,,---,0.00,VWS V14.01,2013-06-11 22:54:00,
2013-06-11 17:57:00,85.5,48.7,26.58,WNW,302,0.0,0.0,28,0.00,,---,0.00,VWS V14.01,2013-06-11 22:57:00,
2013-06-11 17:58:00,85.5,48.7,26.58,WNW,302,0.0,0.0,28,0.00,,---,0.00,VWS V14.01,2013-06-11 22:58:00,
2013-06-11 17:59:00,85.5,48.7,26.58,WNW,286,0.0,0.0,28,0.00,,---,0.00,VWS V14.01,2013-06-11 22:59:00,
2013-06-11 18:02:00,85.5,48.7,26.58,NW,313,0.0,0.0,28,0.00,,---,0.00,VWS V14.01,2013-06-11 23:02:00,
2013-06-11 18:03:00,85.5,48.7,26.58,NW,313,0.0,0.0,28,0.00,,---,0.00,VWS V14.01,2013-06-11 23:03:00,
2013-06-11 18:04:00,85.5,48.7,26.58,NW,313,0.0,0.0,28,0.00,,---,0.00,VWS V14.01,2013-06-11 23:04:00,
2013-06-11 18:07:00,85.1,49.3,26.58,WSW,256,0.0,0.0,29,0.00,,---,0.00,VWS V14.01,2013-06-11 23:07:00,
2013-06-11 18:08:00,85.1,49.3,26.58,WSW,256,0.0,0.0,29,0.00,,---,0.00,VWS V14.01,2013-06-11 23:08:00,
2013-06-11 18:10:00,85.1,49.3,26.55,WSW,256,0.0,0.0,29,0.00,,---,0.00,VWS V14.01,2013-06-11 23:10:00,
2013-06-11 18:13:00,85.1,49.3,26.55,SW,218,2.2,2.2,29,0.00,,---,0.00,VWS V14.01,2013-06-11 23:13:00,
2013-06-11 18:15:00,84.9,49.2,26.55,SW,218,2.2,2.2,29,0.00,,---,0.00,VWS V14.01,2013-06-11 23:15:00,
2013-06-11 18:18:00,84.9,49.2,26.55,SW,218,2.2,2.2,29,0.00,,---,0.00,VWS V14.01,2013-06-11 23:18:00,
2013-06-11 18:19:00,84.9,49.2,26.55,SW,218,2.2,2.2,29,0.00,,---,0.00,VWS V14.01,2013-06-11 23:19:00,
2013-06-11 18:21:00,84.9,49.2,26.55,NW,317,0.0,3.6,29,0.00,,---,0.00,VWS V14.01,2013-06-11 23:21:00,
2013-06-11 18:23:00,84.7,49.0,26.55,NW,317,0.0,0.0,29,0.00,,---,0.00,VWS V14.01,2013-06-11 23:23:00,
2013-06-11 18:24:00,84.7,49.0,26.55,NW,317,0.0,0.0,29,0.00,,---,0.00,VWS V14.01,2013-06-11 23:24:00,
2013-06-11 18:26:00,84.6,48.8,26.55,WNW,286,0.0,0.0,29,0.00,,---,0.00,VWS V14.01,2013-06-11 23:26:00,
2013-06-11 18:28:00,84.6,48.8,26.52,WNW,286,0.0,0.0,29,0.00,,---,0.00,VWS V14.01,2013-06-11 23:28:00,
2013-06-11 18:29:00,84.6,48.8,26.52,WNW,286,0.0,0.0,29,0.00,,---,0.00,VWS V14.01,2013-06-11 23:29:00,
2013-06-11 18:31:00,84.6,48.8,26.52,WNW,286,0.0,0.0,29,0.00,,---,0.00,VWS V14.01,2013-06-11 23:31:00,
2013-06-11 18:33:00,84.4,48.7,26.52,West,268,0.0,0.0,29,0.00,,---,0.00,VWS V14.01,2013-06-11 23:33:00,
2013-06-11 18:34:00,84.4,48.7,26.52,West,268,0.0,0.0,29,0.00,,---,0.00,VWS V14.01,2013-06-11 23:34:00,
2013-06-11 18:36:00,84.4,48.7,26.52,West,268,0.0,0.0,29,0.00,,---,0.00,VWS V14.01,2013-06-11 23:36:00,
2013-06-11 18:38:00,84.4,48.7,26.52,NW,324,0.0,0.0,29,0.00,,---,0.00,VWS V14.01,2013-06-11 23:38:00,
2013-06-11 18:39:00,84.4,48.7,26.52,NW,324,0.0,0.0,29,0.00,,---,0.00,VWS V14.01,2013-06-11 23:39:00,
2013-06-11 18:42:00,84.0,50.2,26.52,NW,324,0.0,0.0,31,0.00,,---,0.00,VWS V14.01,2013-06-11 23:42:00,
2013-06-11 18:44:00,84.0,50.2,26.52,NW,325,0.0,0.0,31,0.00,,---,0.00,VWS V14.01,2013-06-11 23:44:00,
2013-06-11 18:47:00,84.0,50.2,26.52,NW,325,0.0,0.0,31,0.00,,---,0.00,VWS V14.01,2013-06-11 23:47:00,
2013-06-11 18:49:00,84.0,50.2,26.52,NW,325,0.0,0.0,31,0.00,,---,0.00,VWS V14.01,2013-06-11 23:49:00,
2013-06-11 18:53:00,83.3,50.4,26.52,WSW,252,0.0,0.0,32,0.00,,---,0.00,VWS V14.01,2013-06-11 23:53:00,
2013-06-11 18:54:00,83.3,50.4,26.58,WSW,252,0.0,0.0,32,0.00,,---,0.00,VWS V14.01,2013-06-11 23:54:00,
2013-06-11 18:58:00,82.9,50.9,26.58,WSW,252,0.0,0.0,33,0.00,,---,0.00,VWS V14.01,2013-06-11 23:58:00,
2013-06-11 18:59:00,82.8,50.8,26.58,WSW,252,0.0,0.0,33,0.00,,---,0.00,VWS V14.01,2013-06-11 23:59:00,
2013-06-11 19:00:00,82.8,50.8,26.58,WSW,252,0.0,0.0,33,0.00,,---,0.00,VWS V14.01,2013-06-12 00:00:00,
2013-06-11 19:03:00,82.8,50.8,26.58,WSW,252,0.0,0.0,33,0.00,,---,0.00,VWS V14.01,2013-06-12 00:03:00,
2013-06-11 19:04:00,82.6,50.6,26.58,WSW,252,0.0,0.0,33,0.00,,---,0.00,VWS V14.01,2013-06-12 00:04:00,
2013-06-11 19:05:00,82.6,50.6,26.58,WSW,252,0.0,0.0,33,0.00,,---,0.00,VWS V14.01,2013-06-12 00:05:00,
2013-06-11 19:08:00,82.4,51.2,26.58,WSW,252,0.0,0.0,34,0.00,,---,0.00,VWS V14.01,2013-06-12 00:08:00,
2013-06-11 19:10:00,82.4,51.2,26.55,WSW,252,0.0,0.0,34,0.00,,---,0.00,VWS V14.01,2013-06-12 00:10:00,
2013-06-11 19:13:00,82.4,51.2,26.55,WSW,252,0.0,0.0,34,0.00,,---,0.00,VWS V14.01,2013-06-12 00:13:00,
2013-06-11 19:15:00,82.0,52.5,26.55,WSW,252,0.0,0.0,36,0.00,,---,0.00,VWS V14.01,2013-06-12 00:15:00,
2013-06-11 19:16:00,82.0,52.5,26.55,WSW,252,0.0,0.0,36,0.00,,---,0.00,VWS V14.01,2013-06-12 00:16:00,
2013-06-11 19:18:00,81.9,52.3,26.55,WSW,252,0.0,0.0,36,0.00,,---,0.00,VWS V14.01,2013-06-12 00:18:00,
2013-06-11 19:20:00,81.7,52.9,26.55,WSW,252,0.0,0.0,37,0.00,,---,0.00,VWS V14.01,2013-06-12 00:20:00,
2013-06-11 19:21:00,81.7,52.9,26.55,WSW,252,0.0,0.0,37,0.00,,---,0.00,VWS V14.01,2013-06-12 00:21:00,
2013-06-11 19:23:00,81.7,52.9,26.55,WSW,252,0.0,0.0,37,0.00,,---,0.00,VWS V14.01,2013-06-12 00:23:00,
2013-06-11 19:25:00,81.7,52.9,26.55,WSW,252,0.0,0.0,37,0.00,,---,0.00,VWS V14.01,2013-06-12 00:25:00,
2013-06-11 19:26:00,81.7,52.9,26.61,WSW,252,0.0,0.0,37,0.00,,---,0.00,VWS V14.01,2013-06-12 00:26:00,
2013-06-11 19:28:00,81.7,52.9,26.61,WSW,252,0.0,0.0,37,0.00,,---,0.00,VWS V14.01,2013-06-12 00:28:00,
2013-06-11 19:30:00,81.7,52.9,26.61,WSW,252,0.0,0.0,37,0.00,,---,0.00,VWS V14.01,2013-06-12 00:30:00,
2013-06-11 19:31:00,81.7,52.9,26.61,WSW,252,0.0,0.0,37,0.00,,---,0.00,VWS V14.01,2013-06-12 00:31:00,
2013-06-11 19:32:00,81.7,52.9,26.61,WSW,252,0.0,0.0,37,0.00,,---,0.00,VWS V14.01,2013-06-12 00:32:00,
2013-06-11 19:33:00,81.0,53.7,26.61,WSW,252,0.0,0.0,39,0.00,,---,0.00,VWS V14.01,2013-06-12 00:33:00,
2013-06-11 19:35:00,80.8,53.5,26.61,WSW,252,0.0,0.0,39,0.00,,---,0.00,VWS V14.01,2013-06-12 00:35:00,
2013-06-11 19:36:00,80.8,53.5,26.61,WSW,252,0.0,0.0,39,0.00,,---,0.00,VWS V14.01,2013-06-12 00:36:00,
2013-06-11 19:38:00,80.8,53.5,26.61,WSW,252,0.0,0.0,39,0.00,,---,0.00,VWS V14.01,2013-06-12 00:38:00,
2013-06-11 19:40:00,80.8,53.5,26.61,WSW,252,0.0,0.0,39,0.00,,---,0.00,VWS V14.01,2013-06-12 00:40:00,
2013-06-11 19:41:00,80.4,54.6,26.61,WSW,252,0.0,0.0,41,0.00,,---,0.00,VWS V14.01,2013-06-12 00:41:00,
2013-06-11 19:43:00,80.2,54.4,26.55,WSW,252,0.0,0.0,41,0.00,,---,0.00,VWS V14.01,2013-06-12 00:43:00,
2013-06-11 19:45:00,80.2,54.4,26.55,WSW,252,0.0,0.0,41,0.00,,---,0.00,VWS V14.01,2013-06-12 00:45:00,
2013-06-11 19:46:00,80.2,54.4,26.55,WSW,252,0.0,0.0,41,0.00,,---,0.00,VWS V14.01,2013-06-12 00:46:00,
2013-06-11 19:48:00,80.2,54.4,26.55,WSW,252,0.0,0.0,41,0.00,,---,0.00,VWS V14.01,2013-06-12 00:48:00,
2013-06-11 19:49:00,80.2,54.4,26.55,WSW,252,0.0,0.0,41,0.00,,---,0.00,VWS V14.01,2013-06-12 00:49:00,
2013-06-11 19:50:00,80.2,54.4,26.55,WSW,252,0.0,0.0,41,0.00,,---,0.00,VWS V14.01,2013-06-12 00:50:00,
2013-06-11 19:51:00,80.2,54.4,26.55,WSW,252,0.0,0.0,41,0.00,,---,0.00,VWS V14.01,2013-06-12 00:51:00,
2013-06-11 19:54:00,79.3,54.3,26.55,WSW,252,0.0,0.0,42,0.00,,---,0.00,VWS V14.01,2013-06-12 00:54:00,
2013-06-11 19:55:00,79.3,54.3,26.55,WSW,252,0.0,0.0,42,0.00,,---,0.00,VWS V14.01,2013-06-12 00:55:00,
2013-06-11 19:56:00,79.3,54.3,26.55,WSW,252,0.0,0.0,42,0.00,,---,0.00,VWS V14.01,2013-06-12 00:56:00,
2013-06-11 19:59:00,79.2,54.8,26.49,WSW,252,0.0,0.0,43,0.00,,---,0.00,VWS V14.01,2013-06-12 00:59:00,
2013-06-11 20:01:00,79.2,54.8,26.49,WSW,252,0.0,0.0,43,0.00,,---,0.00,VWS V14.01,2013-06-12 01:01:00,
2013-06-11 20:02:00,79.2,54.8,26.49,WSW,252,0.0,0.0,43,0.00,,---,0.00,VWS V14.01,2013-06-12 01:02:00,
2013-06-11 20:04:00,79.2,54.8,26.49,WSW,252,0.0,0.0,43,0.00,,---,0.00,VWS V14.01,2013-06-12 01:04:00,
2013-06-11 20:05:00,79.2,54.8,26.49,WSW,252,0.0,0.0,43,0.00,,---,0.00,VWS V14.01,2013-06-12 01:05:00,
2013-06-11 20:06:00,79.2,54.8,26.49,WSW,252,0.0,0.0,43,0.00,,---,0.00,VWS V14.01,2013-06-12 01:06:00,
2013-06-11 20:07:00,78.6,55.5,26.49,WSW,252,0.0,0.0,45,0.00,,---,0.00,VWS V14.01,2013-06-12 01:07:00,
2013-06-11 20:09:00,78.6,55.5,26.49,WSW,252,0.0,0.0,45,0.00,,---,0.00,VWS V14.01,2013-06-12 01:09:00,
2013-06-11 20:11:00,78.6,55.5,26.49,WSW,252,0.0,0.0,45,0.00,,---,0.00,VWS V14.01,2013-06-12 01:11:00,
2013-06-11 20:12:00,78.4,56.0,26.49,WSW,252,0.0,0.0,46,0.00,,---,0.00,VWS V14.01,2013-06-12 01:12:00,
2013-06-11 20:14:00,78.4,56.0,26.49,WSW,252,0.0,0.0,46,0.00,,---,0.00,VWS V14.01,2013-06-12 01:14:00,
2013-06-11 20:16:00,78.4,56.0,26.49,WSW,252,0.0,0.0,46,0.00,,---,0.00,VWS V14.01,2013-06-12 01:16:00,
2013-06-11 20:17:00,78.4,56.0,26.49,WSW,252,0.0,0.0,46,0.00,,---,0.00,VWS V14.01,2013-06-12 01:17:00,
2013-06-11 20:20:00,78.4,56.0,26.49,WSW,252,0.0,0.0,46,0.00,,---,0.00,VWS V14.01,2013-06-12 01:20:00,
2013-06-11 20:21:00,78.4,56.0,26.49,WSW,252,0.0,0.0,46,0.00,,---,0.00,VWS V14.01,2013-06-12 01:21:00,
2013-06-11 20:23:00,78.4,56.0,26.49,WSW,252,0.0,0.0,46,0.00,,---,0.00,VWS V14.01,2013-06-12 01:23:00,
2013-06-11 20:25:00,78.4,56.0,26.49,WSW,252,0.0,0.0,46,0.00,,---,0.00,VWS V14.01,2013-06-12 01:25:00,
2013-06-11 20:26:00,78.4,56.0,26.58,WSW,252,0.0,0.0,46,0.00,,---,0.00,VWS V14.01,2013-06-12 01:26:00,
2013-06-11 20:27:00,78.4,56.0,26.58,WSW,252,0.0,0.0,46,0.00,,---,0.00,VWS V14.01,2013-06-12 01:27:00,
2013-06-11 20:28:00,78.4,56.0,26.58,WSW,252,0.0,0.0,46,0.00,,---,0.00,VWS V14.01,2013-06-12 01:28:00,
2013-06-11 20:30:00,77.5,55.7,26.58,WSW,252,0.0,0.0,47,0.00,,---,0.00,VWS V14.01,2013-06-12 01:30:00,
2013-06-11 20:31:00,77.5,55.7,26.58,WSW,252,0.0,0.0,47,0.00,,---,0.00,VWS V14.01,2013-06-12 01:31:00,
2013-06-11 20:32:00,77.4,56.2,26.58,WSW,252,0.0,0.0,48,0.00,,---,0.00,VWS V14.01,2013-06-12 01:32:00,
2013-06-11 20:33:00,77.4,56.2,26.58,WSW,252,0.0,0.0,48,0.00,,---,0.00,VWS V14.01,2013-06-12 01:33:00,
2013-06-11 20:34:00,77.4,56.2,26.58,WSW,252,0.0,0.0,48,0.00,,---,0.00,VWS V14.01,2013-06-12 01:34:00,
2013-06-11 20:35:00,77.2,56.0,26.58,WSW,252,0.0,0.0,48,0.00,,---,0.00,VWS V14.01,2013-06-12 01:35:00,
2013-06-11 20:37:00,77.2,56.0,26.58,WSW,252,0.0,0.0,48,0.00,,---,0.00,VWS V14.01,2013-06-12 01:37:00,
2013-06-11 20:38:00,77.2,56.0,26.58,WSW,252,0.0,0.0,48,0.00,,---,0.00,VWS V14.01,2013-06-12 01:38:00,
2013-06-11 20:39:00,77.2,56.0,26.58,WSW,252,0.0,0.0,48,0.00,,---,0.00,VWS V14.01,2013-06-12 01:39:00,
2013-06-11 20:40:00,77.2,56.0,26.58,WSW,252,0.0,0.0,48,0.00,,---,0.00,VWS V14.01,2013-06-12 01:40:00,
2013-06-11 20:42:00,77.2,56.0,26.58,WSW,252,0.0,0.0,48,0.00,,---,0.00,VWS V14.01,2013-06-12 01:42:00,
2013-06-11 20:44:00,77.2,56.0,26.58,WSW,252,0.0,0.0,48,0.00,,---,0.00,VWS V14.01,2013-06-12 01:44:00,
2013-06-11 20:46:00,77.2,56.0,26.58,WSW,252,0.0,0.0,48,0.00,,---,0.00,VWS V14.01,2013-06-12 01:46:00,
2013-06-11 20:47:00,77.2,56.0,26.58,WSW,252,0.0,0.0,48,0.00,,---,0.00,VWS V14.01,2013-06-12 01:47:00,
2013-06-11 20:48:00,77.2,56.0,26.58,WSW,252,0.0,0.0,48,0.00,,---,0.00,VWS V14.01,2013-06-12 01:48:00,
2013-06-11 20:49:00,77.2,56.0,26.58,WSW,252,0.0,0.0,48,0.00,,---,0.00,VWS V14.01,2013-06-12 01:49:00,
2013-06-11 20:50:00,76.6,56.6,26.58,WSW,252,0.0,0.0,50,0.00,,---,0.00,VWS V14.01,2013-06-12 01:50:00,
2013-06-11 20:51:00,76.6,56.6,26.58,WSW,252,0.0,0.0,50,0.00,,---,0.00,VWS V14.01,2013-06-12 01:51:00,
2013-06-11 20:52:00,76.6,56.6,26.58,WSW,252,0.0,0.0,50,0.00,,---,0.00,VWS V14.01,2013-06-12 01:52:00,
2013-06-11 20:53:00,76.5,57.0,26.58,WSW,252,0.0,0.0,51,0.00,,---,0.00,VWS V14.01,2013-06-12 01:53:00,
2013-06-11 20:55:00,76.5,57.0,26.61,WSW,252,0.0,0.0,51,0.00,,---,0.00,VWS V14.01,2013-06-12 01:55:00,
2013-06-11 20:56:00,76.5,57.0,26.61,WSW,252,0.0,0.0,51,0.00,,---,0.00,VWS V14.01,2013-06-12 01:56:00,
2013-06-11 20:58:00,76.5,57.0,26.61,WSW,252,0.0,0.0,51,0.00,,---,0.00,VWS V14.01,2013-06-12 01:58:00,
2013-06-11 20:59:00,76.3,56.8,26.61,WSW,252,0.0,0.0,51,0.00,,---,0.00,VWS V14.01,2013-06-12 01:59:00,
2013-06-11 21:00:00,76.3,56.8,26.61,WSW,252,0.0,0.0,51,0.00,,---,0.00,VWS V14.01,2013-06-12 02:00:00,
2013-06-11 21:01:00,76.1,56.7,26.61,WSW,252,0.0,0.0,51,0.00,,---,0.00,VWS V14.01,2013-06-12 02:01:00,
2013-06-11 21:03:00,76.1,56.7,26.61,WSW,252,0.0,0.0,51,0.00,,---,0.00,VWS V14.01,2013-06-12 02:03:00,
2013-06-11 21:04:00,76.1,56.7,26.61,WSW,252,0.0,0.0,51,0.00,,---,0.00,VWS V14.01,2013-06-12 02:04:00,
2013-06-11 21:05:00,76.1,56.7,26.61,WSW,252,0.0,0.0,51,0.00,,---,0.00,VWS V14.01,2013-06-12 02:05:00,
2013-06-11 21:08:00,76.1,56.7,26.61,WSW,252,0.0,0.0,51,0.00,,---,0.00,VWS V14.01,2013-06-12 02:08:00,
2013-06-11 21:09:00,76.1,56.7,26.61,WSW,252,0.0,0.0,51,0.00,,---,0.00,VWS V14.01,2013-06-12 02:09:00,
2013-06-11 21:10:00,75.9,57.0,26.61,WSW,252,0.0,0.0,52,0.00,,---,0.00,VWS V14.01,2013-06-12 02:10:00,
2013-06-11 21:13:00,75.9,57.0,26.55,WSW,252,0.0,0.0,52,0.00,,---,0.00,VWS V14.01,2013-06-12 02:13:00,
2013-06-11 21:14:00,75.9,57.0,26.55,WSW,252,0.0,0.0,52,0.00,,---,0.00,VWS V14.01,2013-06-12 02:14:00,
2013-06-11 21:15:00,75.9,57.0,26.55,WSW,252,0.0,0.0,52,0.00,,---,0.00,VWS V14.01,2013-06-12 02:15:00,
2013-06-11 21:19:00,75.6,57.2,26.55,WSW,252,0.0,0.0,53,0.00,,---,0.00,VWS V14.01,2013-06-12 02:19:00,
2013-06-11 21:20:00,75.6,57.2,26.55,WSW,252,0.0,0.0,53,0.00,,---,0.00,VWS V14.01,2013-06-12 02:20:00,
2013-06-11 21:24:00,75.6,57.8,26.55,WSW,252,0.0,0.0,54,0.00,,---,0.00,VWS V14.01,2013-06-12 02:24:00,
2013-06-11 21:25:00,75.4,57.6,26.58,WSW,252,0.0,0.0,54,0.00,,---,0.00,VWS V14.01,2013-06-12 02:25:00,
2013-06-11 21:29:00,75.2,57.4,26.58,WSW,252,0.0,0.0,54,0.00,,---,0.00,VWS V14.01,2013-06-12 02:29:00,
2013-06-11 21:31:00,75.2,57.4,26.58,WSW,252,0.0,0.0,54,0.00,,---,0.00,VWS V14.01,2013-06-12 02:31:00,
2013-06-11 21:34:00,75.2,57.9,26.58,WSW,252,0.0,0.0,55,0.00,,---,0.00,VWS V14.01,2013-06-12 02:34:00,
2013-06-11 21:36:00,75.2,57.9,26.58,WSW,252,0.0,0.0,55,0.00,,---,0.00,VWS V14.01,2013-06-12 02:36:00,
2013-06-11 21:39:00,75.0,58.3,26.58,WSW,252,0.0,0.0,56,0.00,,---,0.00,VWS V14.01,2013-06-12 02:39:00,
2013-06-11 21:41:00,74.8,58.1,26.58,WSW,252,0.0,0.0,56,0.00,,---,0.00,VWS V14.01,2013-06-12 02:41:00,
2013-06-11 21:44:00,74.8,58.6,26.58,WSW,252,0.0,0.0,57,0.00,,---,0.00,VWS V14.01,2013-06-12 02:44:00,
2013-06-11 21:45:00,74.8,58.6,26.58,WSW,252,0.0,0.0,57,0.00,,---,0.00,VWS V14.01,2013-06-12 02:45:00,
2013-06-11 21:47:00,74.8,58.6,26.58,WSW,252,0.0,0.0,57,0.00,,---,0.00,VWS V14.01,2013-06-12 02:47:00,
2013-06-11 21:49:00,74.8,58.6,26.58,WSW,252,0.0,0.0,57,0.00,,---,0.00,VWS V14.01,2013-06-12 02:49:00,
2013-06-11 21:50:00,74.8,58.6,26.58,WSW,252,0.0,0.0,57,0.00,,---,0.00,VWS V14.01,2013-06-12 02:50:00,
2013-06-11 21:52:00,74.5,58.8,26.58,WSW,252,0.0,0.0,58,0.00,,---,0.00,VWS V14.01,2013-06-12 02:52:00,
2013-06-11 21:54:00,74.5,59.2,26.49,WSW,252,0.0,0.0,59,0.00,,---,0.00,VWS V14.01,2013-06-12 02:54:00,
2013-06-11 21:55:00,74.5,59.2,26.49,WSW,252,0.0,0.0,59,0.00,,---,0.00,VWS V14.01,2013-06-12 02:55:00,
2013-06-11 21:58:00,74.5,59.2,26.49,WSW,252,0.0,0.0,59,0.00,,---,0.00,VWS V14.01,2013-06-12 02:58:00,
2013-06-11 22:00:00,74.3,59.1,26.49,WSW,252,0.0,0.0,59,0.00,,---,0.00,VWS V14.01,2013-06-12 03:00:00,
2013-06-11 22:03:00,74.3,59.1,26.49,WSW,252,0.0,0.0,59,0.00,,---,0.00,VWS V14.01,2013-06-12 03:03:00,
2013-06-11 22:05:00,74.3,59.1,26.49,WSW,252,0.0,0.0,59,0.00,,---,0.00,VWS V14.01,2013-06-12 03:05:00,
2013-06-11 22:08:00,74.1,58.9,26.49,WSW,252,0.0,0.0,59,0.00,,---,0.00,VWS V14.01,2013-06-12 03:08:00,
2013-06-11 22:10:00,74.1,58.9,26.58,WSW,252,0.0,0.0,59,0.00,,---,0.00,VWS V14.01,2013-06-12 03:10:00,
2013-06-11 22:14:00,74.1,58.9,26.58,WSW,252,0.0,0.0,59,0.00,,---,0.00,VWS V14.01,2013-06-12 03:14:00,
2013-06-11 22:15:00,74.1,58.9,26.58,WSW,252,0.0,0.0,59,0.00,,---,0.00,VWS V14.01,2013-06-12 03:15:00,
2013-06-11 22:19:00,73.9,58.7,26.58,WSW,252,0.0,0.0,59,0.00,,---,0.00,VWS V14.01,2013-06-12 03:19:00,
2013-06-11 22:20:00,73.8,58.5,26.58,WSW,252,0.0,0.0,59,0.00,,---,0.00,VWS V14.01,2013-06-12 03:20:00,
2013-06-11 22:21:00,73.8,58.5,26.58,WSW,252,0.0,0.0,59,0.00,,---,0.00,VWS V14.01,2013-06-12 03:21:00,
2013-06-11 22:24:00,73.8,58.5,26.58,WSW,252,0.0,0.0,59,0.00,,---,0.00,VWS V14.01,2013-06-12 03:24:00,
2013-06-11 22:25:00,73.8,59.0,26.58,WSW,252,0.0,0.0,60,0.00,,---,0.00,VWS V14.01,2013-06-12 03:25:00,
2013-06-11 22:26:00,73.8,59.0,26.58,WSW,252,0.0,0.0,60,0.00,,---,0.00,VWS V14.01,2013-06-12 03:26:00,
2013-06-11 22:29:00,73.6,58.8,26.58,WSW,252,0.0,0.0,60,0.00,,---,0.00,VWS V14.01,2013-06-12 03:29:00,
2013-06-11 22:30:00,73.6,58.8,26.58,WSW,252,0.0,0.0,60,0.00,,---,0.00,VWS V14.01,2013-06-12 03:30:00,
2013-06-11 22:31:00,73.6,58.8,26.58,WSW,252,0.0,0.0,60,0.00,,---,0.00,VWS V14.01,2013-06-12 03:31:00,
2013-06-11 22:34:00,73.6,58.8,26.58,WSW,252,0.0,0.0,60,0.00,,---,0.00,VWS V14.01,2013-06-12 03:34:00,
2013-06-11 22:35:00,73.6,59.3,26.58,WSW,252,0.0,0.0,61,0.00,,---,0.00,VWS V14.01,2013-06-12 03:35:00,
2013-06-11 22:36:00,73.6,59.3,26.58,WSW,252,0.0,0.0,61,0.00,,---,0.00,VWS V14.01,2013-06-12 03:36:00,
2013-06-11 22:37:00,73.6,59.3,26.58,WSW,252,0.0,0.0,61,0.00,,---,0.00,VWS V14.01,2013-06-12 03:37:00,
2013-06-11 22:39:00,73.6,59.3,26.61,WSW,252,0.0,0.0,61,0.00,,---,0.00,VWS V14.01,2013-06-12 03:39:00,
2013-06-11 22:40:00,73.4,59.2,26.61,WSW,252,0.0,0.0,61,0.00,,---,0.00,VWS V14.01,2013-06-12 03:40:00,
2013-06-11 22:41:00,73.4,59.2,26.61,WSW,252,0.0,0.0,61,0.00,,---,0.00,VWS V14.01,2013-06-12 03:41:00,
2013-06-11 22:43:00,73.4,59.2,26.61,WSW,252,0.0,0.0,61,0.00,,---,0.00,VWS V14.01,2013-06-12 03:43:00,
2013-06-11 22:44:00,73.4,59.2,26.61,WSW,252,0.0,0.0,61,0.00,,---,0.00,VWS V14.01,2013-06-12 03:44:00,
2013-06-11 22:46:00,73.2,59.4,26.61,WSW,252,0.0,0.0,62,0.00,,---,0.00,VWS V14.01,2013-06-12 03:46:00,
2013-06-11 22:48:00,73.2,59.4,26.61,WSW,252,0.0,0.0,62,0.00,,---,0.00,VWS V14.01,2013-06-12 03:48:00,
2013-06-11 22:49:00,73.2,59.4,26.61,WSW,252,0.0,0.0,62,0.00,,---,0.00,VWS V14.01,2013-06-12 03:49:00,
2013-06-11 22:51:00,73.2,59.4,26.61,WSW,252,0.0,0.0,62,0.00,,---,0.00,VWS V14.01,2013-06-12 03:51:00,
2013-06-11 22:53:00,73.2,59.4,26.61,WSW,252,0.0,0.0,62,0.00,,---,0.00,VWS V14.01,2013-06-12 03:53:00,
2013-06-11 22:54:00,73.2,59.4,26.46,WSW,252,0.0,0.0,62,0.00,,---,0.00,VWS V14.01,2013-06-12 03:54:00,
2013-06-11 22:56:00,73.2,59.4,26.46,WSW,252,0.0,0.0,62,0.00,,---,0.00,VWS V14.01,2013-06-12 03:56:00,
2013-06-11 22:58:00,73.2,59.4,26.46,WSW,252,0.0,0.0,62,0.00,,---,0.00,VWS V14.01,2013-06-12 03:58:00,
2013-06-11 22:59:00,73.0,59.3,26.46,WSW,252,0.0,0.0,62,0.00,,---,0.00,VWS V14.01,2013-06-12 03:59:00,
2013-06-11 23:01:00,73.0,59.3,26.46,WSW,252,0.0,0.0,62,0.00,,---,0.00,VWS V14.01,2013-06-12 04:01:00,
2013-06-11 23:06:00,73.0,59.7,26.46,WSW,252,0.0,0.0,63,0.00,,---,0.00,VWS V14.01,2013-06-12 04:06:00,
2013-06-11 23:11:00,72.9,59.5,26.64,WSW,252,0.0,0.0,63,0.00,,---,0.00,VWS V14.01,2013-06-12 04:11:00,
2013-06-11 23:12:00,72.9,59.5,26.64,WSW,252,0.0,0.0,63,0.00,,---,0.00,VWS V14.01,2013-06-12 04:12:00,
2013-06-11 23:16:00,72.9,60.0,26.64,WSW,252,0.0,0.0,64,0.00,,---,0.00,VWS V14.01,2013-06-12 04:16:00,
2013-06-11 23:17:00,72.9,60.0,26.64,WSW,252,0.0,0.0,64,0.00,,---,0.00,VWS V14.01,2013-06-12 04:17:00,
2013-06-11 23:21:00,72.9,60.0,26.64,WSW,252,0.0,0.0,64,0.00,,---,0.00,VWS V14.01,2013-06-12 04:21:00,
2013-06-11 23:22:00,72.9,60.0,26.64,WSW,252,0.0,0.0,64,0.00,,---,0.00,VWS V14.01,2013-06-12 04:22:00,
2013-06-11 23:26:00,72.9,60.0,26.67,WSW,252,0.0,0.0,64,0.00,,---,0.00,VWS V14.01,2013-06-12 04:26:00,
2013-06-11 23:27:00,72.9,60.0,26.67,WSW,252,0.0,0.0,64,0.00,,---,0.00,VWS V14.01,2013-06-12 04:27:00,
2013-06-11 23:31:00,72.9,60.0,26.67,WSW,252,0.0,0.0,64,0.00,,---,0.00,VWS V14.01,2013-06-12 04:31:00,
2013-06-11 23:32:00,72.9,60.0,26.67,WSW,252,0.0,0.0,64,0.00,,---,0.00,VWS V14.01,2013-06-12 04:32:00,
2013-06-11 23:33:00,72.9,60.0,26.67,WSW,252,0.0,0.0,64,0.00,,---,0.00,VWS V14.01,2013-06-12 04:33:00,
2013-06-11 23:36:00,72.7,60.2,26.67,WSW,252,0.0,0.0,65,0.00,,---,0.00,VWS V14.01,2013-06-12 04:36:00,
2013-06-11 23:37:00,72.7,60.2,26.67,WSW,252,0.0,0.0,65,0.00,,---,0.00,VWS V14.01,2013-06-12 04:37:00,
2013-06-11 23:38:00,72.7,60.2,26.67,WSW,252,0.0,0.0,65,0.00,,---,0.00,VWS V14.01,2013-06-12 04:38:00,
2013-06-11 23:42:00,72.7,60.2,26.64,WSW,252,0.0,0.0,65,0.00,,---,0.00,VWS V14.01,2013-06-12 04:42:00,
2013-06-11 23:43:00,72.7,60.7,26.64,WSW,252,0.0,0.0,66,0.00,,---,0.00,VWS V14.01,2013-06-12 04:43:00,
2013-06-11 23:47:00,72.7,60.7,26.64,WSW,252,0.0,0.0,66,0.00,,---,0.00,VWS V14.01,2013-06-12 04:47:00,
2013-06-11 23:48:00,72.7,60.7,26.64,WSW,252,0.0,0.0,66,0.00,,---,0.00,VWS V14.01,2013-06-12 04:48:00,
2013-06-11 23:52:00,72.5,60.5,26.64,WSW,252,0.0,0.0,66,0.00,,---,0.00,VWS V14.01,2013-06-12 04:52:00,
2013-06-11 23:53:00,72.5,60.5,26.64,WSW,252,0.0,0.0,66,0.00,,---,0.00,VWS V14.01,2013-06-12 04:53:00,
2013-06-11 23:57:00,72.5,60.5,26.61,WSW,252,0.0,0.0,66,0.00,,---,0.00,VWS V14.01,2013-06-12 04:57:00,
2013-06-11 23:58:00,72.5,60.5,26.61,WSW,252,0.0,0.0,66,0.00,,---,0.00,VWS V14.01,2013-06-12 04:58:00,